Time;durP1;ratioP1;P1;durP2;ratioP2;P2;SDS_P1;SDS_P2;PMS_P1;PMS_P2;Temp;Humidity;BMP_temperature;BMP_pressure;BME280_temperature;BME280_humidity;BME280_pressure;Samples;Min_cycle;Max_cycle;Signal;HPM_P1;HPM_P2
2024/03/09 00:00:42;;;;;;;19.55;13.38;;;7.50;99.90;;;;;;4934635;29;20058;-65
2024/03/09 00:03:11;;;;;;;21.98;14.40;;;7.50;99.90;;;;;;4937505;29;20304;-65
2024/03/09 00:05:41;;;;;;;21.08;14.70;;;7.40;99.90;;;;;;4934098;29;20507;-65
2024/03/09 00:08:09;;;;;;;22.48;14.73;;;7.40;99.90;;;;;;4936946;29;20056;-65
2024/03/09 00:10:37;;;;;;;20.25;13.75;;;7.50;99.90;;;;;;4936040;29;20054;-65
2024/03/09 00:13:04;;;;;;;21.23;13.90;;;7.50;99.90;;;;;;4935941;29;20047;-65
2024/03/09 00:15:31;;;;;;;18.58;13.07;;;7.50;99.90;;;;;;4932436;29;20055;-65
2024/03/09 00:17:58;;;;;;;23.27;15.90;;;7.50;99.90;;;;;;4932078;29;20063;-65
2024/03/09 00:20:33;;;;;;;27.30;17.00;;;7.50;99.90;;;;;;4934151;29;20055;-65
2024/03/09 00:23:00;;;;;;;27.92;18.42;;;7.50;99.90;;;;;;4936522;29;20546;-65
2024/03/09 00:25:32;;;;;;;35.50;20.52;;;7.40;99.90;;;;;;4932400;29;20059;-65
2024/03/09 00:27:59;;;;;;;32.92;18.80;;;7.10;99.90;;;;;;4934394;29;20048;-65
2024/03/09 00:30:29;;;;;;;29.27;17.13;;;6.90;99.90;;;;;;4935424;29;20117;-65
2024/03/09 00:33:01;;;;;;;25.67;15.40;;;6.90;99.90;;;;;;4937893;29;20083;-65
2024/03/09 00:35:29;;;;;;;27.08;17.10;;;6.90;99.90;;;;;;4941055;29;20122;-65
2024/03/09 00:37:58;;;;;;;23.20;14.98;;;6.90;99.90;;;;;;4936038;29;20104;-65
2024/03/09 00:40:28;;;;;;;21.08;12.88;;;7.00;99.90;;;;;;4937680;29;20051;-65
2024/03/09 00:43:04;;;;;;;12.45;7.47;;;7.00;99.90;;;;;;4937113;29;20051;-65
2024/03/09 00:45:30;;;;;;;13.13;7.30;;;7.30;99.90;;;;;;4933890;29;20052;-65
2024/03/09 00:47:58;;;;;;;17.15;9.90;;;7.40;99.90;;;;;;4934209;29;20260;-65
2024/03/09 00:50:26;;;;;;;16.40;9.63;;;7.40;99.90;;;;;;4944085;29;20111;-65
2024/03/09 00:52:54;;;;;;;10.85;6.45;;;7.40;99.90;;;;;;4931684;29;20072;-65
2024/03/09 00:55:22;;;;;;;9.15;6.68;;;7.50;99.90;;;;;;4937505;29;20051;-65
2024/03/09 00:57:53;;;;;;;8.63;5.00;;;7.60;99.90;;;;;;4938486;28;20136;-65
2024/03/09 01:00:23;;;;;;;5.70;4.38;;;7.70;99.90;;;;;;4936992;29;20563;-65
2024/03/09 01:02:50;;;;;;;9.30;4.20;;;7.70;99.90;;;;;;4942308;29;20507;-65
2024/03/09 01:05:22;;;;;;;5.40;3.47;;;7.70;99.90;;;;;;4942095;29;20642;-65
2024/03/09 01:07:51;;;;;;;6.22;4.18;;;7.70;99.90;;;;;;4938858;29;20135;-65
2024/03/09 01:10:18;;;;;;;7.28;4.55;;;7.80;99.90;;;;;;4943529;29;20615;-66
2024/03/09 01:12:45;;;;;;;6.75;4.30;;;7.80;99.90;;;;;;4941367;29;20428;-65
2024/03/09 01:15:13;;;;;;;3.55;2.75;;;7.70;99.90;;;;;;4923064;29;20067;-65
2024/03/09 01:17:40;;;;;;;4.40;3.08;;;7.80;99.90;;;;;;4937110;29;20153;-65
2024/03/09 01:20:08;;;;;;;5.65;2.75;;;7.90;99.90;;;;;;4937764;29;20099;-65
2024/03/09 01:22:37;;;;;;;3.58;2.95;;;7.90;99.90;;;;;;4948053;28;20051;-65
2024/03/09 01:25:14;;;;;;;8.90;3.70;;;7.90;99.90;;;;;;4939145;29;20047;-65
2024/03/09 01:27:41;;;;;;;6.93;3.38;;;7.90;99.90;;;;;;4941197;29;20059;-65
2024/03/09 01:30:09;;;;;;;4.80;2.78;;;7.90;99.90;;;;;;4942011;29;20047;-66
2024/03/09 01:32:36;;;;;;;4.35;3.25;;;7.90;99.90;;;;;;4940776;29;20134;-65
2024/03/09 01:35:03;;;;;;;4.40;2.65;;;7.90;99.90;;;;;;4940956;29;20066;-65
2024/03/09 01:37:30;;;;;;;3.63;2.63;;;7.80;99.90;;;;;;4951530;28;20089;-65
2024/03/09 01:39:57;;;;;;;2.85;2.20;;;7.80;99.90;;;;;;4936927;29;20064;-65
2024/03/09 01:42:26;;;;;;;3.65;2.38;;;7.70;99.90;;;;;;4938364;29;20062;-65
2024/03/09 01:44:54;;;;;;;3.85;3.00;;;7.70;99.90;;;;;;4944134;29;20275;-65
2024/03/09 01:47:22;;;;;;;6.03;4.47;;;7.70;99.90;;;;;;4939200;29;20139;-65
2024/03/09 01:49:51;;;;;;;17.75;11.27;;;7.70;99.90;;;;;;4937916;29;20095;-65
2024/03/09 01:52:21;;;;;;;24.40;16.23;;;7.60;99.90;;;;;;4933930;29;20056;-65
2024/03/09 01:54:51;;;;;;;24.83;16.48;;;7.40;99.90;;;;;;4941409;29;20142;-65
2024/03/09 01:57:19;;;;;;;26.25;18.27;;;7.30;99.90;;;;;;4943194;29;20102;-65
2024/03/09 01:59:54;;;;;;;29.70;18.50;;;7.20;99.90;;;;;;4941774;29;20082;-65
2024/03/09 02:02:23;;;;;;;28.90;18.23;;;7.10;99.90;;;;;;4936894;29;20059;-65
2024/03/09 02:04:50;;;;;;;26.20;17.60;;;7.00;99.90;;;;;;4939059;29;20472;-65
2024/03/09 02:07:18;;;;;;;29.83;17.95;;;7.00;99.90;;;;;;4919870;29;20051;-65
2024/03/09 02:09:46;;;;;;;27.58;17.70;;;6.90;99.90;;;;;;4935090;28;20052;-65
2024/03/09 02:12:13;;;;;;;26.30;17.52;;;6.80;99.90;;;;;;4941107;29;20044;-65
2024/03/09 02:14:43;;;;;;;32.88;19.27;;;6.70;99.90;;;;;;4935042;29;20189;-65
2024/03/09 02:17:11;;;;;;;26.98;16.27;;;6.70;99.90;;;;;;4937225;29;20142;-65
2024/03/09 02:19:38;;;;;;;28.17;18.67;;;6.60;99.90;;;;;;4936375;29;20110;-65
2024/03/09 02:22:08;;;;;;;28.90;18.88;;;6.60;99.90;;;;;;4938390;29;20112;-65
2024/03/09 02:24:40;;;;;;;31.38;19.70;;;6.50;99.90;;;;;;4944425;29;20051;-65
2024/03/09 02:27:08;;;;;;;31.75;20.52;;;6.50;99.90;;;;;;4938000;29;20098;-65
2024/03/09 02:29:35;;;;;;;29.98;20.17;;;6.40;99.90;;;;;;4933286;29;20051;-65
2024/03/09 02:32:01;;;;;;;31.83;19.45;;;6.40;99.90;;;;;;4937596;29;20152;-65
2024/03/09 02:34:29;;;;;;;34.35;20.55;;;6.30;99.90;;;;;;4936091;29;20056;-65
2024/03/09 02:36:55;;;;;;;35.90;22.67;;;6.30;99.90;;;;;;4942759;29;20098;-65
2024/03/09 02:39:23;;;;;;;35.13;22.05;;;6.20;99.90;;;;;;4937976;29;20471;-65
2024/03/09 02:41:50;;;;;;;32.40;20.00;;;6.20;99.90;;;;;;4934618;29;20484;-65
2024/03/09 02:44:17;;;;;;;29.50;19.80;;;6.20;99.90;;;;;;4936195;29;20131;-65
2024/03/09 02:46:44;;;;;;;31.95;20.50;;;6.10;99.90;;;;;;4942000;28;20067;-65
2024/03/09 02:49:11;;;;;;;35.55;21.65;;;6.10;99.90;;;;;;4937779;29;20508;-66
2024/03/09 02:51:38;;;;;;;35.72;19.75;;;6.00;99.90;;;;;;4942173;29;20048;-65
2024/03/09 02:54:05;;;;;;;34.22;20.80;;;6.00;99.90;;;;;;4938565;29;20134;-65
2024/03/09 02:56:32;;;;;;;36.20;22.45;;;5.90;99.90;;;;;;4939806;29;20062;-65
2024/03/09 02:58:59;;;;;;;36.15;21.15;;;5.80;99.90;;;;;;4933086;29;20240;-65
2024/03/09 03:01:27;;;;;;;34.35;20.42;;;5.70;99.90;;;;;;4942333;29;20043;-65
2024/03/09 03:03:59;;;;;;;34.45;21.10;;;5.60;99.90;;;;;;4936241;29;20122;-65
2024/03/09 03:06:28;;;;;;;37.03;21.70;;;5.60;99.90;;;;;;4941019;29;20047;-65
2024/03/09 03:08:59;;;;;;;34.38;19.85;;;5.50;99.90;;;;;;4941155;29;20043;-65
2024/03/09 03:11:27;;;;;;;33.33;20.05;;;5.40;99.90;;;;;;4939305;29;20051;-65
2024/03/09 03:13:55;;;;;;;34.35;20.38;;;5.30;99.90;;;;;;4936274;29;20055;-65
2024/03/09 03:16:28;;;;;;;32.80;20.48;;;5.20;99.90;;;;;;4939982;29;20043;-65
2024/03/09 03:19:06;;;;;;;35.63;19.63;;;5.10;99.90;;;;;;4944369;29;20559;-65
2024/03/09 03:21:34;;;;;;;37.72;21.15;;;5.10;99.90;;;;;;4928251;29;20063;-65
2024/03/09 03:24:02;;;;;;;36.88;21.75;;;5.00;99.90;;;;;;4931973;29;20115;-65
2024/03/09 03:26:31;;;;;;;39.13;22.02;;;5.00;99.90;;;;;;4939096;29;20047;-65
2024/03/09 03:29:01;;;;;;;39.22;22.00;;;4.90;99.90;;;;;;4938761;29;20515;-65
2024/03/09 03:31:30;;;;;;;35.58;21.45;;;4.80;99.90;;;;;;4940204;29;20069;-65
2024/03/09 03:33:57;;;;;;;41.60;22.08;;;4.80;99.90;;;;;;4942701;29;20047;-65
2024/03/09 03:36:24;;;;;;;35.63;20.70;;;4.70;99.90;;;;;;4917546;29;20143;-65
2024/03/09 03:38:51;;;;;;;35.92;21.42;;;4.70;99.90;;;;;;4936172;29;20051;-65
2024/03/09 03:41:22;;;;;;;36.08;20.50;;;4.60;99.90;;;;;;4938906;29;20508;-65
2024/03/09 03:43:50;;;;;;;36.10;20.27;;;4.60;99.90;;;;;;4937679;29;20083;-65
2024/03/09 03:46:17;;;;;;;38.95;21.98;;;4.60;99.90;;;;;;4935669;29;20059;-65
2024/03/09 03:48:46;;;;;;;40.30;22.45;;;4.50;99.90;;;;;;4934405;29;20043;-65
2024/03/09 03:51:15;;;;;;;40.92;21.38;;;4.50;99.90;;;;;;4935931;29;20075;-65
2024/03/09 03:53:44;;;;;;;44.83;22.30;;;4.40;99.90;;;;;;4932170;29;20047;-65
2024/03/09 03:56:12;;;;;;;37.88;22.45;;;4.30;99.90;;;;;;4939939;29;20059;-66
2024/03/09 03:58:41;;;;;;;37.05;21.23;;;4.30;99.90;;;;;;4935470;29;20130;-65
2024/03/09 04:01:09;;;;;;;41.38;20.50;;;4.30;99.90;;;;;;4919291;29;20055;-65
2024/03/09 04:03:37;;;;;;;42.97;23.30;;;4.20;99.90;;;;;;4936397;29;20066;-65
2024/03/09 04:06:05;;;;;;;42.65;21.80;;;4.20;99.90;;;;;;4931483;29;20594;-65
2024/03/09 04:08:33;;;;;;;35.00;20.63;;;4.10;99.90;;;;;;4934693;29;20063;-65
2024/03/09 04:11:00;;;;;;;37.75;20.15;;;4.10;99.90;;;;;;4934203;29;20040;-65
2024/03/09 04:13:27;;;;;;;39.05;21.55;;;4.10;99.90;;;;;;4932278;29;20581;-65
2024/03/09 04:15:55;;;;;;;38.58;20.08;;;4.10;99.90;;;;;;4936253;29;20054;-65
2024/03/09 04:18:23;;;;;;;35.25;20.25;;;4.00;99.90;;;;;;4933787;29;20695;-65
2024/03/09 04:20:50;;;;;;;32.97;18.90;;;4.00;99.90;;;;;;4932606;29;20137;-65
2024/03/09 04:23:17;;;;;;;33.35;18.48;;;4.00;99.90;;;;;;4933325;29;20059;-65
2024/03/09 04:25:46;;;;;;;34.75;17.83;;;3.90;99.90;;;;;;4930019;29;20047;-65
2024/03/09 04:28:20;;;;;;;30.17;17.40;;;3.80;99.90;;;;;;4933521;29;20134;-65
2024/03/09 04:30:49;;;;;;;31.80;16.50;;;3.70;99.90;;;;;;4933773;29;20055;-65
2024/03/09 04:33:17;;;;;;;26.48;15.32;;;3.70;99.90;;;;;;4938702;29;20047;-66
2024/03/09 04:35:47;;;;;;;29.95;15.60;;;3.70;99.90;;;;;;4939728;29;20064;-65
2024/03/09 04:38:15;;;;;;;25.08;13.38;;;3.60;99.90;;;;;;4938548;29;20138;-65
2024/03/09 04:40:43;;;;;;;26.77;14.65;;;3.60;99.90;;;;;;4923288;29;20052;-65
2024/03/09 04:43:13;;;;;;;24.08;13.95;;;3.60;99.90;;;;;;4932507;29;20060;-65
2024/03/09 04:45:40;;;;;;;25.97;13.73;;;3.60;99.90;;;;;;4934736;29;20052;-65
2024/03/09 04:48:09;;;;;;;27.75;14.70;;;3.60;99.90;;;;;;4935327;29;20058;-65
2024/03/09 04:50:38;;;;;;;34.17;17.30;;;3.60;99.90;;;;;;4939464;29;20130;-65
2024/03/09 04:53:06;;;;;;;35.97;18.63;;;3.50;99.90;;;;;;4938845;29;20053;-65
2024/03/09 04:55:35;;;;;;;27.10;12.40;;;3.50;99.90;;;;;;4936159;29;20339;-65
2024/03/09 04:58:13;;;;;;;29.60;12.75;;;3.40;99.90;;;;;;4939472;29;20528;-65
2024/03/09 05:00:41;;;;;;;23.65;12.90;;;3.40;99.90;;;;;;4938640;29;20062;-65
2024/03/09 05:03:08;;;;;;;24.70;14.20;;;3.40;99.90;;;;;;4938200;29;20551;-65
2024/03/09 05:05:35;;;;;;;21.70;12.20;;;3.40;99.90;;;;;;4941284;29;20940;-65
2024/03/09 05:08:02;;;;;;;23.08;12.57;;;3.40;99.90;;;;;;4935264;29;20274;-65
2024/03/09 05:10:30;;;;;;;21.27;12.43;;;3.40;99.90;;;;;;4938150;29;20056;-65
2024/03/09 05:12:57;;;;;;;25.58;13.05;;;3.40;99.90;;;;;;4938820;29;20416;-65
2024/03/09 05:15:26;;;;;;;23.00;12.40;;;3.30;99.90;;;;;;4937061;29;20659;-66
2024/03/09 05:17:58;;;;;;;19.00;11.13;;;3.30;99.90;;;;;;4935162;29;20511;-65
2024/03/09 05:20:27;;;;;;;19.90;12.23;;;3.20;99.90;;;;;;4934623;29;20056;-65
2024/03/09 05:23:03;;;;;;;22.90;11.90;;;3.20;99.90;;;;;;4935891;29;20083;-65
2024/03/09 05:25:31;;;;;;;22.60;11.13;;;3.30;99.90;;;;;;4935195;29;20062;-66
2024/03/09 05:27:58;;;;;;;19.05;10.93;;;3.20;99.90;;;;;;4940987;29;20048;-65
2024/03/09 05:30:28;;;;;;;19.80;11.50;;;3.10;99.90;;;;;;4935625;29;20098;-66
2024/03/09 05:32:57;;;;;;;17.45;10.90;;;3.10;99.90;;;;;;4939902;29;20043;-65
2024/03/09 05:35:28;;;;;;;;;;;3.10;99.90;;;;;;4939216;29;20473;-65
2024/03/09 05:37:58;;;;;;;20.30;10.77;;;3.10;99.90;;;;;;4937032;29;20008;-66
2024/03/09 05:40:27;;;;;;;23.05;11.68;;;3.00;99.90;;;;;;4940510;29;20139;-65
2024/03/09 05:42:55;;;;;;;20.00;10.45;;;3.00;99.90;;;;;;4935244;29;20051;-65
2024/03/09 05:45:23;;;;;;;19.45;11.32;;;3.00;99.90;;;;;;4934971;29;20055;-66
2024/03/09 05:47:59;;;;;;;18.83;11.48;;;3.00;99.90;;;;;;4934110;29;20060;-66
2024/03/09 05:50:28;;;;;;;17.65;10.10;;;3.00;99.90;;;;;;4936714;29;20052;-66
2024/03/09 05:52:57;;;;;;;23.40;11.20;;;3.00;99.90;;;;;;4939698;29;20146;-66
2024/03/09 05:55:25;;;;;;;17.85;8.73;;;2.90;99.90;;;;;;4935356;29;20043;-66
2024/03/09 05:57:53;;;;;;;16.27;9.00;;;3.00;99.90;;;;;;4940180;29;20055;-65
2024/03/09 06:00:27;;;;;;;19.77;9.43;;;3.10;99.90;;;;;;4936653;29;20051;-65
2024/03/09 06:02:55;;;;;;;19.65;10.65;;;3.10;99.90;;;;;;4937545;29;20119;-65
2024/03/09 06:05:23;;;;;;;19.60;10.52;;;3.10;99.90;;;;;;4934491;29;20052;-65
2024/03/09 06:07:49;;;;;;;26.17;15.18;;;3.10;99.90;;;;;;4936443;29;20058;-65
2024/03/09 06:10:17;;;;;;;30.85;18.02;;;3.00;99.90;;;;;;4939616;29;20461;-65
2024/03/09 06:12:49;;;;;;;32.20;17.50;;;3.10;99.90;;;;;;4935505;29;20532;-65
2024/03/09 06:15:18;;;;;;;28.73;15.02;;;3.10;99.90;;;;;;4937960;29;20055;-65
2024/03/09 06:18:00;;;;;;;29.80;16.33;;;3.00;99.90;;;;;;4933203;29;20134;-65
2024/03/09 06:20:28;;;;;;;31.13;19.50;;;3.10;99.90;;;;;;4935501;29;20353;-65
2024/03/09 06:22:56;;;;;;;29.45;16.38;;;3.10;99.90;;;;;;4936762;29;20448;-65
2024/03/09 06:25:30;;;;;;;23.73;13.80;;;3.10;99.90;;;;;;4934389;29;20048;-65
2024/03/09 06:28:08;;;;;;;24.25;15.18;;;3.20;99.90;;;;;;4950053;28;20049;-65
2024/03/09 06:30:38;;;;;;;24.30;15.55;;;3.10;99.90;;;;;;4936000;29;20908;-65
2024/03/09 06:33:05;;;;;;;27.15;15.15;;;3.20;99.90;;;;;;4937240;29;20083;-65
2024/03/09 06:35:32;;;;;;;20.92;12.93;;;3.20;99.90;;;;;;4934613;29;20101;-65
2024/03/09 06:38:07;;;;;;;19.23;10.60;;;3.20;99.90;;;;;;4936154;29;20085;-65
2024/03/09 06:40:41;;;;;;;15.23;9.75;;;3.30;99.90;;;;;;4933458;29;20055;-65
2024/03/09 06:43:12;;;;;;;14.95;8.77;;;3.30;99.90;;;;;;4941108;29;20051;-65
2024/03/09 06:45:40;;;;;;;17.10;8.30;;;3.40;99.90;;;;;;4930948;29;20424;-66
2024/03/09 06:48:07;;;;;;;11.95;7.55;;;3.40;99.90;;;;;;4930847;29;20058;-65
2024/03/09 06:50:36;;;;;;;11.40;7.25;;;3.50;99.90;;;;;;4934163;29;20051;-66
2024/03/09 06:53:03;;;;;;;13.60;7.47;;;3.50;99.90;;;;;;4935468;29;20589;-66
2024/03/09 06:55:30;;;;;;;15.73;8.13;;;3.60;99.90;;;;;;4937657;29;20513;-65
2024/03/09 06:58:01;;;;;;;12.73;7.40;;;3.60;99.90;;;;;;4935875;29;20051;-66
2024/03/09 07:00:34;;;;;;;17.45;9.05;;;3.70;99.90;;;;;;4935841;29;20059;-66
2024/03/09 07:03:00;;;;;;;12.55;8.00;;;3.80;99.90;;;;;;4935013;29;20066;-66
2024/03/09 07:05:30;;;;;;;14.52;9.05;;;3.80;99.90;;;;;;4939296;29;20047;-66
2024/03/09 07:08:00;;;;;;;16.65;9.95;;;3.90;99.90;;;;;;4935446;29;20051;-66
2024/03/09 07:10:28;;;;;;;15.32;9.18;;;4.00;99.90;;;;;;4934595;29;20119;-66
2024/03/09 07:12:56;;;;;;;13.77;9.40;;;4.00;99.90;;;;;;4934000;29;20043;-66
2024/03/09 07:15:25;;;;;;;18.20;9.68;;;4.10;99.90;;;;;;4932694;29;20055;-66
2024/03/09 07:17:56;;;;;;;14.68;9.43;;;4.20;99.90;;;;;;4933672;29;20135;-66
2024/03/09 07:20:23;;;;;;;17.05;9.15;;;4.30;99.90;;;;;;4933469;29;20126;-66
2024/03/09 07:22:51;;;;;;;17.40;9.70;;;4.40;99.90;;;;;;4929852;29;20138;-66
2024/03/09 07:25:23;;;;;;;14.13;9.18;;;4.50;99.90;;;;;;4933335;29;20083;-66
2024/03/09 07:27:54;;;;;;;15.13;8.65;;;4.80;99.90;;;;;;4937243;29;20047;-66
2024/03/09 07:30:21;;;;;;;18.60;10.15;;;5.10;99.90;;;;;;4932990;29;20054;-66
2024/03/09 07:32:49;;;;;;;18.05;11.27;;;5.40;99.90;;;;;;4935078;29;20051;-66
2024/03/09 07:35:18;;;;;;;19.95;10.45;;;5.60;99.90;;;;;;4934363;29;20039;-66
2024/03/09 07:37:47;;;;;;;16.23;10.07;;;5.70;99.90;;;;;;4937586;29;20043;-66
2024/03/09 07:40:15;;;;;;;15.07;9.68;;;5.70;99.90;;;;;;4934436;29;20057;-66
2024/03/09 07:42:43;;;;;;;19.80;10.82;;;5.70;99.90;;;;;;4935934;29;20047;-66
2024/03/09 07:45:13;;;;;;;23.88;11.55;;;5.70;99.90;;;;;;4926537;29;20497;-66
2024/03/09 07:47:42;;;;;;;25.02;13.48;;;5.80;99.90;;;;;;4930941;29;20138;-66
2024/03/09 07:50:16;;;;;;;24.75;13.77;;;5.80;99.90;;;;;;4939502;29;20102;-66
2024/03/09 07:52:48;;;;;;;23.85;14.93;;;5.90;99.90;;;;;;4938668;29;20050;-67
2024/03/09 07:55:17;;;;;;;31.65;19.00;;;6.00;99.90;;;;;;4938420;29;20058;-66
2024/03/09 07:57:44;;;;;;;30.17;18.58;;;6.20;99.90;;;;;;4934658;29;20421;-66
2024/03/09 08:00:46;;;;;;;29.58;18.80;;;6.50;99.90;;;;;;4933625;29;20058;-66
2024/03/09 08:03:06;;;;;;;29.75;18.20;;;6.60;99.90;;;;;;4934643;29;20048;-66
2024/03/09 08:05:33;;;;;;;28.70;18.10;;;6.80;99.90;;;;;;4932616;29;20055;-66
2024/03/09 08:08:02;;;;;;;27.90;17.73;;;6.90;99.90;;;;;;4932876;29;20044;-66
2024/03/09 08:10:31;;;;;;;31.13;17.95;;;7.10;99.90;;;;;;4933903;29;20265;-66
2024/03/09 08:12:59;;;;;;;30.65;18.63;;;7.30;99.90;;;;;;4936384;29;20079;-67
2024/03/09 08:15:28;;;;;;;33.00;18.73;;;7.40;99.90;;;;;;4938294;29;20058;-67
2024/03/09 08:17:56;;;;;;;25.13;16.60;;;7.50;99.90;;;;;;4937691;29;20102;-62
2024/03/09 08:20:24;;;;;;;27.55;17.70;;;7.70;99.90;;;;;;4935853;29;20106;-62
2024/03/09 08:22:51;;;;;;;26.98;17.40;;;7.80;99.90;;;;;;4938767;29;20060;-62
2024/03/09 08:25:18;;;;;;;29.73;17.13;;;7.80;99.90;;;;;;4938220;29;20465;-62
2024/03/09 08:27:46;;;;;;;26.85;17.17;;;7.80;99.90;;;;;;4937427;29;20072;-62
2024/03/09 08:30:15;;;;;;;30.00;16.92;;;7.90;99.90;;;;;;4934059;29;20146;-62
2024/03/09 08:32:45;;;;;;;28.65;17.88;;;8.00;99.90;;;;;;4937270;29;20376;-62
2024/03/09 08:35:15;;;;;;;32.08;18.35;;;8.00;99.90;;;;;;4938222;29;20227;-62
2024/03/09 08:37:43;;;;;;;26.15;17.60;;;8.00;99.90;;;;;;4934093;29;20643;-62
2024/03/09 08:40:23;;;;;;;27.25;17.60;;;8.10;99.90;;;;;;4940752;29;20047;-62
2024/03/09 08:42:52;;;;;;;28.75;18.95;;;8.10;99.90;;;;;;4935072;29;20043;-62
2024/03/09 08:45:21;;;;;;;28.75;17.95;;;8.20;99.90;;;;;;4932375;29;20040;-62
2024/03/09 08:47:50;;;;;;;31.10;18.90;;;8.30;99.90;;;;;;4931463;29;20055;-62
2024/03/09 08:50:18;;;;;;;33.45;19.45;;;8.30;99.90;;;;;;4937193;29;20755;-62
2024/03/09 08:52:45;;;;;;;30.45;18.50;;;8.40;99.90;;;;;;4931028;29;20563;-62
2024/03/09 08:55:14;;;;;;;30.58;19.45;;;8.30;99.90;;;;;;4937133;29;20126;-62
2024/03/09 08:57:42;;;;;;;29.08;18.15;;;8.30;99.90;;;;;;4937927;29;20064;-62
2024/03/09 09:00:09;;;;;;;32.83;19.70;;;8.30;99.90;;;;;;4937335;29;20059;-61
2024/03/09 09:02:40;;;;;;;31.48;20.58;;;8.20;99.90;;;;;;4941657;29;20055;-62
2024/03/09 09:05:11;;;;;;;30.23;18.70;;;8.20;99.90;;;;;;4933706;29;20108;-62
2024/03/09 09:07:42;;;;;;;33.15;18.83;;;8.20;99.90;;;;;;4935365;29;20058;-62
2024/03/09 09:10:14;;;;;;;29.25;18.20;;;8.20;99.90;;;;;;4931845;29;20440;-61
2024/03/09 09:12:42;;;;;;;28.45;18.10;;;8.10;99.90;;;;;;4931624;29;20047;-61
2024/03/09 09:15:10;;;;;;;30.52;18.83;;;8.20;99.90;;;;;;4936485;29;20075;-62
2024/03/09 09:17:40;;;;;;;28.70;19.45;;;8.30;99.90;;;;;;4933330;29;20051;-62
2024/03/09 09:20:11;;;;;;;34.70;20.73;;;8.50;99.90;;;;;;4941841;29;20397;-62
2024/03/09 09:22:43;;;;;;;29.38;19.88;;;8.60;99.90;;;;;;4939108;29;20074;-61
2024/03/09 09:25:13;;;;;;;29.63;19.25;;;8.80;99.90;;;;;;4942656;29;20055;-62
2024/03/09 09:27:43;;;;;;;29.77;20.98;;;8.90;99.90;;;;;;4939616;29;20606;-62
2024/03/09 09:30:10;;;;;;;32.42;21.05;;;8.90;99.90;;;;;;4938819;29;20094;-61
2024/03/09 09:32:40;;;;;;;31.38;20.27;;;8.80;99.90;;;;;;4943312;29;20078;-62
2024/03/09 09:35:09;;;;;;;29.90;19.45;;;8.70;99.90;;;;;;4938962;29;20500;-62
2024/03/09 09:37:36;;;;;;;28.80;18.90;;;8.70;99.90;;;;;;4940065;29;20444;-62
2024/03/09 09:40:03;;;;;;;31.88;20.38;;;8.70;99.90;;;;;;4941444;29;20513;-61
2024/03/09 09:42:33;;;;;;;34.03;19.63;;;8.60;99.90;;;;;;4939706;29;20051;-62
2024/03/09 09:45:00;;;;;;;32.88;21.15;;;8.70;99.90;;;;;;4938634;29;20199;-61
2024/03/09 09:47:29;;;;;;;31.55;20.48;;;8.60;99.90;;;;;;4939018;29;20519;-62
2024/03/09 09:49:57;;;;;;;30.45;20.17;;;8.60;99.90;;;;;;4944878;29;20559;-61
2024/03/09 09:52:24;;;;;;;31.98;20.77;;;8.70;99.90;;;;;;4939200;29;20138;-61
2024/03/09 09:54:55;;;;;;;30.20;19.55;;;8.70;99.90;;;;;;4922290;29;20283;-61
2024/03/09 09:57:24;;;;;;;30.92;19.40;;;8.70;99.90;;;;;;4939893;29;20053;-61
2024/03/09 09:59:52;;;;;;;30.27;18.63;;;8.70;99.90;;;;;;4923687;29;20043;-62
2024/03/09 10:02:22;;;;;;;28.95;18.38;;;8.70;99.90;;;;;;4937766;29;20543;-61
2024/03/09 10:04:50;;;;;;;30.45;18.70;;;8.70;99.90;;;;;;4936636;29;20131;-61
2024/03/09 10:07:17;;;;;;;29.38;19.13;;;8.60;99.90;;;;;;4938632;29;20086;-62
2024/03/09 10:09:47;;;;;;;30.00;18.40;;;8.60;99.90;;;;;;4941367;29;20043;-61
2024/03/09 10:12:23;;;;;;;29.02;19.20;;;8.60;99.90;;;;;;4935333;29;20122;-61
2024/03/09 10:14:51;;;;;;;31.05;19.17;;;8.60;99.90;;;;;;4940363;29;20098;-62
2024/03/09 10:17:22;;;;;;;33.78;20.58;;;8.70;99.90;;;;;;4941140;29;20814;-60
2024/03/09 10:19:49;;;;;;;33.60;19.92;;;8.60;99.90;;;;;;4941085;29;20483;-61
2024/03/09 10:22:16;;;;;;;28.63;19.02;;;8.60;99.90;;;;;;4939094;29;20059;-61
2024/03/09 10:24:53;;;;;;;28.55;19.52;;;8.70;99.90;;;;;;4939114;29;20043;-61
2024/03/09 10:27:21;;;;;;;32.05;20.15;;;8.80;99.90;;;;;;4938033;29;20111;-62
2024/03/09 10:29:48;;;;;;;28.98;18.88;;;9.00;99.90;;;;;;4937807;29;20119;-61
2024/03/09 10:32:18;;;;;;;29.33;19.45;;;9.40;99.90;;;;;;4942430;29;20051;-62
2024/03/09 10:34:44;;;;;;;34.67;20.70;;;9.70;99.90;;;;;;4936550;29;20515;-62
2024/03/09 10:37:17;;;;;;;31.23;19.77;;;10.00;99.90;;;;;;4933838;29;20059;-62
2024/03/09 10:39:44;;;;;;;33.60;19.63;;;10.20;99.90;;;;;;4941388;29;20051;-62
2024/03/09 10:42:15;;;;;;;29.17;19.38;;;10.50;99.90;;;;;;4934781;29;20181;-61
2024/03/09 10:44:42;;;;;;;31.60;19.90;;;10.70;99.90;;;;;;4942152;29;20051;-61
2024/03/09 10:47:12;;;;;;;29.02;17.80;;;10.90;99.90;;;;;;4937090;29;20056;-62
2024/03/09 10:49:44;;;;;;;28.92;19.65;;;11.10;99.90;;;;;;4942626;29;20062;-62
2024/03/09 10:52:16;;;;;;;26.95;17.95;;;11.30;99.90;;;;;;4945478;29;20043;-62
2024/03/09 10:54:51;;;;;;;27.10;18.90;;;11.20;99.90;;;;;;4941401;29;20048;-62
2024/03/09 10:57:21;;;;;;;29.67;18.38;;;11.00;99.90;;;;;;4943776;29;20094;-61
2024/03/09 10:59:49;;;;;;;29.52;18.63;;;11.20;99.90;;;;;;4943599;29;20213;-62
2024/03/09 11:02:18;;;;;;;31.63;19.25;;;11.10;99.90;;;;;;4938471;29;20051;-62
2024/03/09 11:04:49;;;;;;;27.38;18.88;;;11.00;99.90;;;;;;4940140;29;20062;-62
2024/03/09 11:07:20;;;;;;;28.35;18.95;;;11.10;99.90;;;;;;4947470;29;20091;-61
2024/03/09 11:09:49;;;;;;;26.75;18.15;;;11.10;99.90;;;;;;4942643;29;20043;-62
2024/03/09 11:12:19;;;;;;;29.75;18.83;;;11.10;99.90;;;;;;4922168;29;20079;-62
2024/03/09 11:14:51;;;;;;;27.88;17.42;;;11.00;99.90;;;;;;4944332;29;20457;-62
2024/03/09 11:17:23;;;;;;;28.70;18.58;;;11.00;99.90;;;;;;4925511;29;20095;-62
2024/03/09 11:19:56;;;;;;;27.70;18.27;;;11.10;99.90;;;;;;4934059;29;20052;-62
2024/03/09 11:22:47;;;;;;;28.08;17.67;;;11.00;99.90;;;;;;4935016;29;20055;-62
2024/03/09 11:25:14;;;;;;;27.55;17.50;;;11.00;99.90;;;;;;4934733;29;20143;-62
2024/03/09 11:27:42;;;;;;;26.60;18.20;;;11.00;99.90;;;;;;4937937;29;20055;-62
2024/03/09 11:30:11;;;;;;;26.20;17.63;;;10.90;99.90;;;;;;4936676;29;20047;-62
2024/03/09 11:32:41;;;;;;;27.25;17.80;;;11.00;99.90;;;;;;4944492;29;20146;-62
2024/03/09 11:35:33;;;;;;;25.63;16.05;;;11.10;99.90;;;;;;4942953;29;20544;-62
2024/03/09 11:38:10;;;;;;;28.95;18.48;;;11.40;99.90;;;;;;4937429;29;20171;-62
2024/03/09 11:40:37;;;;;;;30.45;18.70;;;11.70;99.90;;;;;;4936815;28;20081;-63
2024/03/09 11:43:11;;;;;;;29.45;17.77;;;12.00;99.90;;;;;;4942906;29;20054;-62
2024/03/09 11:45:39;;;;;;;28.30;16.23;;;12.20;99.90;;;;;;4942152;29;20799;-62
2024/03/09 11:48:08;;;;;;;25.88;17.25;;;12.30;99.90;;;;;;4936904;29;20401;-62
2024/03/09 11:50:40;;;;;;;27.40;18.10;;;12.40;99.90;;;;;;4941704;29;20047;-62
2024/03/09 11:53:10;;;;;;;24.25;17.05;;;12.50;99.90;;;;;;4942186;29;20110;-62
2024/03/09 11:55:38;;;;;;;;;;;12.60;99.90;;;;;;4943994;29;20400;-62
2024/03/09 11:58:08;;;;;;;27.45;17.60;;;12.50;99.90;;;;;;4945381;29;19930;-62
2024/03/09 12:00:35;;;;;;;24.90;18.10;;;12.40;99.90;;;;;;4938563;29;20150;-62
2024/03/09 12:03:15;;;;;;;29.05;18.67;;;12.30;99.90;;;;;;4941669;29;20122;-62
2024/03/09 12:05:43;;;;;;;26.63;17.48;;;12.40;99.90;;;;;;4944302;29;20055;-62
2024/03/09 12:08:10;;;;;;;29.75;18.88;;;12.30;99.90;;;;;;4945201;29;20106;-62
2024/03/09 12:10:38;;;;;;;25.00;17.85;;;12.10;99.90;;;;;;4936893;29;20495;-62
2024/03/09 12:13:06;;;;;;;27.15;18.50;;;11.90;99.90;;;;;;4936335;29;20058;-62
2024/03/09 12:15:34;;;;;;;24.83;16.70;;;11.80;99.90;;;;;;4935489;29;20051;-62
2024/03/09 12:18:11;;;;;;;27.25;17.17;;;11.70;99.90;;;;;;4934146;29;20055;-62
2024/03/09 12:20:39;;;;;;;27.15;18.73;;;11.60;99.90;;;;;;4933824;29;20091;-62
2024/03/09 12:23:12;;;;;;;25.42;17.48;;;11.70;99.90;;;;;;4939562;29;20130;-62
2024/03/09 12:25:41;;;;;;;26.48;16.92;;;11.70;99.90;;;;;;4934183;29;20052;-62
2024/03/09 12:28:09;;;;;;;25.90;16.67;;;11.70;99.90;;;;;;4919288;29;20047;-65
2024/03/09 12:30:36;;;;;;;26.05;18.25;;;11.70;99.90;;;;;;4934887;29;20062;-65
2024/03/09 12:33:03;;;;;;;26.30;17.50;;;11.90;99.90;;;;;;4933922;29;20468;-65
2024/03/09 12:35:34;;;;;;;26.75;18.70;;;11.80;99.90;;;;;;4944037;29;20070;-65
2024/03/09 12:38:14;;;;;;;26.73;18.48;;;11.90;99.90;;;;;;4933238;29;20138;-65
2024/03/09 12:40:44;;;;;;;27.77;19.48;;;11.70;99.90;;;;;;4938777;29;20151;-65
2024/03/09 12:43:13;;;;;;;29.50;18.95;;;11.60;99.90;;;;;;4946188;29;20484;-65
2024/03/09 12:45:43;;;;;;;33.10;19.48;;;11.50;99.90;;;;;;4936523;29;20535;-65
2024/03/09 12:48:11;;;;;;;28.27;19.42;;;11.60;99.90;;;;;;4933140;29;20043;-65